^^
Grace C. Lehan Memorial Weather Station Historical Data
Daily Summary for November 6, 2021 Units:  Both    English   Metric
Daily Weekly Monthly Yearly
  High: Low: Average:
Temperature: 49.2 °F /  9.6 °C 29.6 °F /  -1.3 °C 34.2 °F /  1.2 °C
Dew Point: 36.8 °F /  2.7 °C 27.4 °F /  -2.6 °C 30.2 °F /  -1 °C
Humidity: 93.6% 61.9% 86%
Wind Speed: 0.8mph /  1.3km/h - 0mph /  0km/h
Wind Gust: 5mph /  8km/h - -
Wind- - West
Pressure: 30.44 in /  1030.7 hPa 30.38 in /  1028.7 hPa -
Precipitation: 0.00 in /  0 mm    
 
 
Tabular Data for November 6, 2021
Time Temperature Dew Point Pressure Wind Wind Speed Wind Gust Humidity Rainfall Rate (Hourly) solar
00:09 35.7 °F /  2.1 °C 30.7 °F /  -0.7 °C 30.38in /  1028.7hPa Calm     82% 0.00in /  0mm 0 W/m2
00:14 35.5 °F /  1.9 °C 30.6 °F /  -0.8 °C 30.38in /  1028.7hPa Calm     82% 0.00in /  0mm 0 W/m2
00:19 35.3 °F /  1.8 °C 30.4 °F /  -0.9 °C 30.38in /  1028.7hPa Calm     82.4% 0.00in /  0mm 0 W/m2
00:24 35.1 °F /  1.7 °C 30.4 °F /  -0.9 °C 30.38in /  1028.7hPa Calm     83% 0.00in /  0mm 0 W/m2
00:29 34.9 °F /  1.6 °C 30.4 °F /  -0.9 °C 30.38in /  1028.7hPa Calm     83.3% 0.00in /  0mm 0 W/m2
00:34 34.8 °F /  1.6 °C 30.4 °F /  -0.9 °C 30.38in /  1028.7hPa Calm     84% 0.00in /  0mm 0 W/m2
00:39 34.7 °F /  1.5 °C 30.6 °F /  -0.8 °C 30.39in /  1029hPa Calm     84.7% 0.00in /  0mm 0 W/m2
00:44 34.6 °F /  1.4 °C 30.6 °F /  -0.8 °C 30.39in /  1029hPa Calm     85% 0.00in /  0mm 0 W/m2
00:49 34.6 °F /  1.4 °C 30.8 °F /  -0.7 °C 30.39in /  1029hPa Calm     85.7% 0.00in /  0mm 0 W/m2
00:54 34.5 °F /  1.4 °C 30.8 °F /  -0.7 °C 30.40in /  1029.3hPa Calm     86% 0.00in /  0mm 0 W/m2
00:59 34.4 °F /  1.3 °C 30.7 °F /  -0.7 °C 30.40in /  1029.3hPa Calm     86% 0.00in /  0mm 0 W/m2
01:04 34.3 °F /  1.3 °C 30.6 °F /  -0.8 °C 30.40in /  1029.3hPa Calm     86% 0.00in /  0mm 0 W/m2
01:09 34.2 °F /  1.2 °C 30.4 °F /  -0.9 °C 30.40in /  1029.3hPa Calm     86% 0.00in /  0mm 0 W/m2
01:14 34 °F /  1.1 °C 30.3 °F /  -0.9 °C 30.39in /  1029hPa Calm     86% 0.00in /  0mm 0 W/m2
01:19 33.9 °F /  1.1 °C 30.2 °F /  -1 °C 30.40in /  1029.3hPa Calm     86.3% 0.00in /  0mm 0 W/m2
01:24 33.7 °F /  0.9 °C 30.2 °F /  -1 °C 30.40in /  1029.3hPa Calm     86.9% 0.00in /  0mm 0 W/m2
01:29 33.6 °F /  0.9 °C 30.1 °F /  -1.1 °C 30.40in /  1029.3hPa Calm     86.7% 0.00in /  0mm 0 W/m2
01:34 33.5 °F /  0.8 °C 30.1 °F /  -1.1 °C 30.39in /  1029hPa Calm     87% 0.00in /  0mm 0 W/m2
01:39 33.4 °F /  0.8 °C 30 °F /  -1.1 °C 30.39in /  1029hPa Calm     87% 0.00in /  0mm 0 W/m2
01:44 33.4 °F /  0.8 °C 29.9 °F /  -1.2 °C 30.39in /  1029hPa Calm     87% 0.00in /  0mm 0 W/m2
01:49 33.3 °F /  0.7 °C 29.8 °F /  -1.2 °C 30.39in /  1029hPa Calm     87% 0.00in /  0mm 0 W/m2
01:54 33.1 °F /  0.6 °C 29.7 °F /  -1.3 °C 30.39in /  1029hPa Calm     87% 0.00in /  0mm 0 W/m2
01:59 33 °F /  0.6 °C 29.6 °F /  -1.3 °C 30.39in /  1029hPa Calm     87% 0.00in /  0mm 0 W/m2
02:04 32.9 °F /  0.5 °C 29.5 °F /  -1.4 °C 30.39in /  1029hPa Calm     87% 0.00in /  0mm 0 W/m2
02:09 32.8 °F /  0.4 °C 29.3 °F /  -1.5 °C 30.39in /  1029hPa Calm     87% 0.00in /  0mm 0 W/m2
02:14 32.7 °F /  0.4 °C 29.3 °F /  -1.5 °C 30.39in /  1029hPa Calm     87.4% 0.00in /  0mm 0 W/m2
02:19 32.5 °F /  0.3 °C 29.4 °F /  -1.4 °C 30.39in /  1029hPa Calm     88% 0.00in /  0mm 0 W/m2
02:24 32.5 °F /  0.3 °C 29.3 °F /  -1.5 °C 30.39in /  1029hPa Calm     88% 0.00in /  0mm 0 W/m2
02:29 32.4 °F /  0.2 °C 29.3 °F /  -1.5 °C 30.39in /  1029hPa Calm     88% 0.00in /  0mm 0 W/m2
02:34 32.3 °F /  0.2 °C 29.2 °F /  -1.6 °C 30.39in /  1029hPa Calm     88% 0.00in /  0mm 0 W/m2
02:39 32.3 °F /  0.2 °C 29.2 °F /  -1.6 °C 30.39in /  1029hPa Calm     88% 0.00in /  0mm 0 W/m2
02:44 32.3 °F /  0.2 °C 29.1 °F /  -1.6 °C 30.39in /  1029hPa Calm     88% 0.00in /  0mm 0 W/m2
02:49 32.2 °F /  0.1 °C 29.2 °F /  -1.6 °C 30.40in /  1029.3hPa Calm     88.5% 0.00in /  0mm 0 W/m2
02:54 32.2 °F /  0.1 °C 29.3 °F /  -1.5 °C 30.40in /  1029.3hPa Calm     89% 0.00in /  0mm 0 W/m2
02:59 32.2 °F /  0.1 °C 29.3 °F /  -1.5 °C 30.40in /  1029.3hPa Calm     89% 0.00in /  0mm 0 W/m2
03:04 32.1 °F /  0.1 °C 29.2 °F /  -1.6 °C 30.40in /  1029.3hPa Calm     89% 0.00in /  0mm 0 W/m2
03:09 32 °F /  0 °C 29.4 °F /  -1.4 °C 30.40in /  1029.3hPa Calm     89.8% 0.00in /  0mm 0 W/m2
03:14 31.9 °F /  -0.1 °C 29.1 °F /  -1.6 °C 30.40in /  1029.3hPa Calm     89.1% 0.00in /  0mm 0 W/m2
03:19 31.8 °F /  -0.1 °C 29 °F /  -1.7 °C 30.40in /  1029.3hPa Calm     89% 0.00in /  0mm 0 W/m2
03:24 31.7 °F /  -0.2 °C 28.9 °F /  -1.7 °C 30.40in /  1029.3hPa Calm     89% 0.00in /  0mm 0 W/m2
03:29 31.7 °F /  -0.2 °C 28.8 °F /  -1.8 °C 30.41in /  1029.7hPa Calm     89% 0.00in /  0mm 0 W/m2
03:34 31.6 °F /  -0.2 °C 28.7 °F /  -1.8 °C 30.41in /  1029.7hPa Calm     89% 0.00in /  0mm 0 W/m2
03:39 31.5 °F /  -0.3 °C 28.7 °F /  -1.8 °C 30.41in /  1029.7hPa Calm     89% 0.00in /  0mm 0 W/m2
03:44 31.5 °F /  -0.3 °C 28.6 °F /  -1.9 °C 30.41in /  1029.7hPa Calm     89% 0.00in /  0mm 0 W/m2
03:49 31.4 °F /  -0.3 °C 28.5 °F /  -1.9 °C 30.41in /  1029.7hPa Calm     89% 0.00in /  0mm 0 W/m2
03:54 31.4 °F /  -0.3 °C 28.8 °F /  -1.8 °C 30.41in /  1029.7hPa Calm     89.8% 0.00in /  0mm 0 W/m2
03:59 31.4 °F /  -0.3 °C 28.8 °F /  -1.8 °C 30.41in /  1029.7hPa Calm     90% 0.00in /  0mm 0 W/m2
04:00 31.4 °F /  -0.3 °C 28.8 °F /  -1.8 °C 30.41in /  1029.7hPa Calm     90% 0.00in /  0mm 0 W/m2
04:09 31.3 °F /  -0.4 °C 28.7 °F /  -1.8 °C 30.41in /  1029.7hPa Calm     90% 0.00in /  0mm 0 W/m2
04:14 31.2 °F /  -0.4 °C 28.6 °F /  -1.9 °C 30.41in /  1029.7hPa Calm     90% 0.00in /  0mm 0 W/m2
04:19 31.2 °F /  -0.4 °C 28.6 °F /  -1.9 °C 30.41in /  1029.7hPa Calm     90% 0.00in /  0mm 0 W/m2
04:24 31.1 °F /  -0.5 °C 28.6 °F /  -1.9 °C 30.41in /  1029.7hPa Calm     90% 0.00in /  0mm 0 W/m2
04:29 31.1 °F /  -0.5 °C 28.5 °F /  -1.9 °C 30.41in /  1029.7hPa Calm     90% 0.00in /  0mm 0 W/m2
04:34 31 °F /  -0.6 °C 28.4 °F /  -2 °C 30.41in /  1029.7hPa Calm     90% 0.00in /  0mm 0 W/m2
04:39 30.9 °F /  -0.6 °C 28.3 °F /  -2.1 °C 30.41in /  1029.7hPa Calm     90% 0.00in /  0mm 0 W/m2
04:44 30.8 °F /  -0.7 °C 28.2 °F /  -2.1 °C 30.41in /  1029.7hPa Calm     90% 0.00in /  0mm 0 W/m2
04:49 30.8 °F /  -0.7 °C 28.2 °F /  -2.1 °C 30.41in /  1029.7hPa Calm     90% 0.00in /  0mm 0 W/m2
04:54 30.8 °F /  -0.7 °C 28.2 °F /  -2.1 °C 30.42in /  1030hPa Calm     90% 0.00in /  0mm 0 W/m2
04:59 30.7 °F /  -0.7 °C 28.1 °F /  -2.2 °C 30.42in /  1030hPa Calm     90% 0.00in /  0mm 0 W/m2
05:04 30.7 °F /  -0.7 °C 28.1 °F /  -2.2 °C 30.42in /  1030hPa Calm     90% 0.00in /  0mm 0 W/m2
05:09 30.6 °F /  -0.8 °C 28.3 °F /  -2.1 °C 30.42in /  1030hPa Calm     91% 0.00in /  0mm 0 W/m2
05:14 30.6 °F /  -0.8 °C 28.3 °F /  -2.1 °C 30.42in /  1030hPa Calm     91% 0.00in /  0mm 0 W/m2
05:19 30.6 °F /  -0.8 °C 28.3 °F /  -2.1 °C 30.42in /  1030hPa Calm     91% 0.00in /  0mm 0 W/m2
05:24 30.6 °F /  -0.8 °C 28.3 °F /  -2.1 °C 30.42in /  1030hPa Calm     91% 0.00in /  0mm 0 W/m2
05:29 30.5 °F /  -0.8 °C 28.2 °F /  -2.1 °C 30.42in /  1030hPa Calm     91% 0.00in /  0mm 0 W/m2
05:34 30.5 °F /  -0.8 °C 28.2 °F /  -2.1 °C 30.43in /  1030.4hPa Calm     91% 0.00in /  0mm 0 W/m2
05:39 30.4 °F /  -0.9 °C 28.1 °F /  -2.2 °C 30.43in /  1030.4hPa Calm     91% 0.00in /  0mm 0 W/m2
05:44 30.3 °F /  -0.9 °C 28 °F /  -2.2 °C 30.43in /  1030.4hPa Calm     91% 0.00in /  0mm 0 W/m2
05:49 30.2 °F /  -1 °C 27.9 °F /  -2.3 °C 30.42in /  1030hPa Calm     91% 0.00in /  0mm 0 W/m2
05:54 30.2 °F /  -1 °C 27.9 °F /  -2.3 °C 30.43in /  1030.4hPa Calm     91% 0.00in /  0mm 0 W/m2
05:59 30.1 °F /  -1.1 °C 27.8 °F /  -2.3 °C 30.43in /  1030.4hPa Calm     91% 0.00in /  0mm 0 W/m2
06:04 30 °F /  -1.1 °C 27.7 °F /  -2.4 °C 30.43in /  1030.4hPa Calm     91% 0.00in /  0mm 0 W/m2
06:09 29.9 °F /  -1.2 °C 27.6 °F /  -2.4 °C 30.43in /  1030.4hPa Calm     91% 0.00in /  0mm 0 W/m2
06:14 29.9 °F /  -1.2 °C 27.6 °F /  -2.4 °C 30.44in /  1030.7hPa Calm     91% 0.00in /  0mm 0 W/m2
06:19 29.8 °F /  -1.2 °C 27.5 °F /  -2.5 °C 30.44in /  1030.7hPa Calm     91% 0.00in /  0mm 0 W/m2
06:24 29.8 °F /  -1.2 °C 27.5 °F /  -2.5 °C 30.44in /  1030.7hPa Calm     91% 0.00in /  0mm 0 W/m2
06:29 29.7 °F /  -1.3 °C 27.4 °F /  -2.6 °C 30.43in /  1030.4hPa Calm     91% 0.00in /  0mm 0 W/m2
06:34 29.7 °F /  -1.3 °C 27.4 °F /  -2.6 °C 30.43in /  1030.4hPa Calm     91% 0.00in /  0mm 0 W/m2
06:39 29.7 °F /  -1.3 °C 27.4 °F /  -2.6 °C 30.43in /  1030.4hPa Calm     91% 0.00in /  0mm 0 W/m2
06:44 29.7 °F /  -1.3 °C 27.7 °F /  -2.4 °C 30.42in /  1030hPa Calm     92% 0.00in /  0mm 0 W/m2
06:49 29.7 °F /  -1.3 °C 27.7 °F /  -2.4 °C 30.42in /  1030hPa Calm     92% 0.00in /  0mm 0 W/m2
06:54 29.7 °F /  -1.3 °C 27.7 °F /  -2.4 °C 30.43in /  1030.4hPa Calm     92% 0.00in /  0mm 0 W/m2
06:59 29.7 °F /  -1.3 °C 27.7 °F /  -2.4 °C 30.43in /  1030.4hPa Calm     92% 0.00in /  0mm 0 W/m2
07:04 29.7 °F /  -1.3 °C 27.7 °F /  -2.4 °C 30.43in /  1030.4hPa Calm     92% 0.00in /  0mm 0 W/m2
07:09 29.7 °F /  -1.3 °C 27.7 °F /  -2.4 °C 30.43in /  1030.4hPa Calm     92% 0.00in /  0mm 0 W/m2
07:14 29.7 °F /  -1.3 °C 27.7 °F /  -2.4 °C 30.43in /  1030.4hPa Calm     92% 0.00in /  0mm 0 W/m2
07:19 29.7 °F /  -1.3 °C 27.6 °F /  -2.4 °C 30.43in /  1030.4hPa Calm     92% 0.00in /  0mm 0 W/m2
07:24 29.6 °F /  -1.3 °C 27.6 °F /  -2.4 °C 30.42in /  1030hPa Calm     92% 0.00in /  0mm 0 W/m2
07:29 29.6 °F /  -1.3 °C 27.6 °F /  -2.4 °C 30.42in /  1030hPa Calm     92% 0.00in /  0mm 0 W/m2
07:34 29.6 °F /  -1.3 °C 27.6 °F /  -2.4 °C 30.43in /  1030.4hPa Calm     92% 0.00in /  0mm 5 W/m2
07:39 29.6 °F /  -1.3 °C 27.6 °F /  -2.4 °C 30.43in /  1030.4hPa Calm     92% 0.00in /  0mm 9 W/m2
07:44 29.6 °F /  -1.3 °C 27.6 °F /  -2.4 °C 30.43in /  1030.4hPa Calm     92% 0.00in /  0mm 12 W/m2
07:49 29.6 °F /  -1.3 °C 27.6 °F /  -2.4 °C 30.43in /  1030.4hPa Calm     92% 0.00in /  0mm 14 W/m2
07:54 29.6 °F /  -1.3 °C 27.6 °F /  -2.4 °C 30.43in /  1030.4hPa Calm     92% 0.00in /  0mm 16 W/m2
07:58 29.6 °F /  -1.3 °C 27.6 °F /  -2.4 °C 30.43in /  1030.4hPa Calm     92% 0.00in /  0mm 21 W/m2
08:00 29.7 °F /  -1.3 °C 27.9 °F /  -2.3 °C 30.43in /  1030.4hPa Calm     93% 0.00in /  0mm 26 W/m2
08:09 30.2 °F /  -1 °C 28.4 °F /  -2 °C 30.43in /  1030.4hPa Calm     93% 0.00in /  0mm 35 W/m2
08:14 30.6 °F /  -0.8 °C 28.8 °F /  -1.8 °C 30.43in /  1030.4hPa Calm     93% 0.00in /  0mm 37 W/m2
08:19 30.8 °F /  -0.7 °C 29.1 °F /  -1.6 °C 30.43in /  1030.4hPa Calm     93% 0.00in /  0mm 28 W/m2
08:24 31 °F /  -0.6 °C 29.2 °F /  -1.6 °C 30.43in /  1030.4hPa NW 0.1mph /  0.2km/h 1mph /  1.6km/h 93% 0.00in /  0mm 37 W/m2
08:29 31.1 °F /  -0.5 °C 29.3 °F /  -1.5 °C 30.43in /  1030.4hPa NW 0.1mph /  0.2km/h 2mph /  3.2km/h 93% 0.00in /  0mm 37 W/m2
08:34 31.3 °F /  -0.4 °C 29.5 °F /  -1.4 °C 30.43in /  1030.4hPa NW 0.2mph /  0.3km/h 2mph /  3.2km/h 93% 0.00in /  0mm 79 W/m2
08:39 31.5 °F /  -0.3 °C 29.7 °F /  -1.3 °C 30.43in /  1030.4hPa Calm   2mph /  3.2km/h 93% 0.00in /  0mm 63 W/m2
08:44 31.7 °F /  -0.2 °C 30 °F /  -1.1 °C 30.43in /  1030.4hPa Calm   2mph /  3.2km/h 93% 0.00in /  0mm 46 W/m2
08:49 32.1 °F /  0.1 °C 30.3 °F /  -0.9 °C 30.43in /  1030.4hPa Calm   2mph /  3.2km/h 93% 0.00in /  0mm 53 W/m2
08:54 32.5 °F /  0.3 °C 30.7 °F /  -0.7 °C 30.44in /  1030.7hPa Calm   2mph /  3.2km/h 93% 0.00in /  0mm 72 W/m2
08:59 32.8 °F /  0.4 °C 31 °F /  -0.6 °C 30.44in /  1030.7hPa Calm   2mph /  3.2km/h 93% 0.00in /  0mm 218 W/m2
09:04 33.4 °F /  0.8 °C 31.6 °F /  -0.2 °C 30.43in /  1030.4hPa NW 0.1mph /  0.2km/h 2mph /  3.2km/h 93% 0.00in /  0mm 257 W/m2
09:09 34.2 °F /  1.2 °C 32.5 °F /  0.3 °C 30.43in /  1030.4hPa NNW 0.6mph /  1km/h 3mph /  4.8km/h 93.6% 0.00in /  0mm 271 W/m2
09:14 35 °F /  1.7 °C 32.8 °F /  0.4 °C 30.43in /  1030.4hPa Calm   3mph /  4.8km/h 91.7% 0.00in /  0mm 287 W/m2
09:19 35.9 °F /  2.2 °C 33.3 °F /  0.7 °C 30.43in /  1030.4hPa Calm   3mph /  4.8km/h 90.2% 0.00in /  0mm 297 W/m2
09:24 37 °F /  2.8 °C 34 °F /  1.1 °C 30.43in /  1030.4hPa Calm   3mph /  4.8km/h 88.8% 0.00in /  0mm 311 W/m2
09:29 38.1 °F /  3.4 °C 34.5 °F /  1.4 °C 30.44in /  1030.7hPa NNW 0.6mph /  1km/h 3mph /  4.8km/h 86.5% 0.00in /  0mm 327 W/m2
09:34 39.2 °F /  4 °C 34.3 °F /  1.3 °C 30.43in /  1030.4hPa Calm   3mph /  4.8km/h 82.5% 0.00in /  0mm 341 W/m2
09:39 40.2 °F /  4.6 °C 34.8 °F /  1.6 °C 30.43in /  1030.4hPa Calm   1mph /  1.6km/h 81.1% 0.00in /  0mm 352 W/m2
09:44 41.3 °F /  5.2 °C 35.2 °F /  1.8 °C 30.43in /  1030.4hPa Calm   1mph /  1.6km/h 78.8% 0.00in /  0mm 364 W/m2
09:49 42.1 °F /  5.6 °C 34.9 °F /  1.6 °C 30.44in /  1030.7hPa Calm   1mph /  1.6km/h 75.5% 0.00in /  0mm 374 W/m2
09:54 42.5 °F /  5.8 °C 34.7 °F /  1.5 °C 30.44in /  1030.7hPa Calm   1mph /  1.6km/h 73.6% 0.00in /  0mm 387 W/m2
09:59 43 °F /  6.1 °C 35 °F /  1.7 °C 30.44in /  1030.7hPa Calm   1mph /  1.6km/h 73.2% 0.00in /  0mm 399 W/m2
10:04 43.3 °F /  6.3 °C 34.9 °F /  1.6 °C 30.43in /  1030.4hPa Calm   1mph /  1.6km/h 72% 0.00in /  0mm 413 W/m2
10:09 43.5 °F /  6.4 °C 34.8 °F /  1.6 °C 30.43in /  1030.4hPa Calm     71.2% 0.00in /  0mm 418 W/m2
10:14 43.8 °F /  6.6 °C 35 °F /  1.7 °C 30.43in /  1030.4hPa Calm     71% 0.00in /  0mm 418 W/m2
10:19 44.1 °F /  6.7 °C 34.7 °F /  1.5 °C 30.43in /  1030.4hPa Calm     69.3% 0.00in /  0mm 415 W/m2
10:24 44.2 °F /  6.8 °C 34.4 °F /  1.3 °C 30.42in /  1030hPa Calm     68.2% 0.00in /  0mm 403 W/m2
10:29 43.9 °F /  6.6 °C 34.1 °F /  1.2 °C 30.42in /  1030hPa NNW 0.3mph /  0.5km/h 2mph /  3.2km/h 68% 0.00in /  0mm 439 W/m2
10:34 43.7 °F /  6.5 °C 33.9 °F /  1.1 °C 30.42in /  1030hPa NNW 0.8mph /  1.3km/h 4mph /  6.4km/h 68.2% 0.00in /  0mm 360 W/m2
10:39 43.6 °F /  6.4 °C 34 °F /  1.1 °C 30.42in /  1030hPa North 0.6mph /  1km/h 4mph /  6.4km/h 68.6% 0.00in /  0mm 360 W/m2
10:44 43.4 °F /  6.3 °C 33.7 °F /  0.9 °C 30.42in /  1030hPa Calm   4mph /  6.4km/h 68.3% 0.00in /  0mm 367 W/m2
10:49 43.3 °F /  6.3 °C 34 °F /  1.1 °C 30.42in /  1030hPa Calm   4mph /  6.4km/h 69.3% 0.00in /  0mm 218 W/m2
10:54 43.3 °F /  6.3 °C 34 °F /  1.1 °C 30.42in /  1030hPa Calm   4mph /  6.4km/h 69.3% 0.00in /  0mm 457 W/m2
10:59 43.5 °F /  6.4 °C 34.3 °F /  1.3 °C 30.42in /  1030hPa Calm   4mph /  6.4km/h 69.8% 0.00in /  0mm 367 W/m2
11:04 43.7 °F /  6.5 °C 34.4 °F /  1.3 °C 30.42in /  1030hPa Calm   4mph /  6.4km/h 69.6% 0.00in /  0mm 355 W/m2
11:09 43.9 °F /  6.6 °C 34.9 °F /  1.6 °C 30.42in /  1030hPa NNE 0.6mph /  1km/h 5mph /  8km/h 70.3% 0.00in /  0mm 457 W/m2
11:14 44.5 °F /  6.9 °C 35.2 °F /  1.8 °C 30.42in /  1030hPa Calm   5mph /  8km/h 69.9% 0.00in /  0mm 536 W/m2
11:19 45.4 °F /  7.4 °C 35.4 °F /  1.9 °C 30.42in /  1030hPa Calm   5mph /  8km/h 67.9% 0.00in /  0mm 541 W/m2
11:24 46.3 °F /  7.9 °C 35.8 °F /  2.1 °C 30.42in /  1030hPa Calm   5mph /  8km/h 66.7% 0.00in /  0mm 550 W/m2
11:29 47.3 °F /  8.5 °C 36.8 °F /  2.7 °C 30.42in /  1030hPa Calm   5mph /  8km/h 66.8% 0.00in /  0mm 561 W/m2
11:34 48 °F /  8.9 °C 36.4 °F /  2.4 °C 30.41in /  1029.7hPa Calm   5mph /  8km/h 63.9% 0.00in /  0mm 564 W/m2
11:39 48.6 °F /  9.2 °C 36.6 °F /  2.6 °C 30.41in /  1029.7hPa Calm   1mph /  1.6km/h 63% 0.00in /  0mm 563 W/m2
11:43 49.2 °F /  9.6 °C 36.7 °F /  2.6 °C 30.41in /  1029.7hPa Calm   1mph /  1.6km/h 61.9% 0.00in /  0mm 548 W/m2
Hartford County Weather
Compliments of Weather Underground - 4 mb